createdAt,value
2019-03-22T00:00:34.283Z,10.22
2019-03-22T00:01:34.247Z,10.20
2019-03-22T00:02:34.235Z,10.30
2019-03-22T00:03:34.223Z,10.18
2019-03-22T00:04:34.216Z,10.20
2019-03-22T00:05:34.221Z,10.22
2019-03-22T00:06:34.188Z,10.20
2019-03-22T00:07:34.179Z,10.20
2019-03-22T00:08:34.168Z,10.17
2019-03-22T00:09:34.155Z,10.15
2019-03-22T00:10:34.161Z,10.22
2019-03-22T00:11:34.132Z,10.23
2019-03-22T00:12:34.124Z,10.17
2019-03-22T00:13:34.110Z,10.25
2019-03-22T00:14:36.750Z,10.17
2019-03-22T00:15:34.103Z,10.14
2019-03-22T00:16:34.076Z,10.15
2019-03-22T00:17:34.067Z,10.15
2019-03-22T00:18:34.053Z,10.17
2019-03-22T00:19:34.042Z,10.15
2019-03-22T00:20:34.048Z,10.11
2019-03-22T00:21:34.020Z,10.09
2019-03-22T00:22:34.008Z,10.20
2019-03-22T00:23:33.997Z,10.09
2019-03-22T00:24:33.990Z,10.23
2019-03-22T00:25:33.991Z,10.11
2019-03-22T00:26:33.964Z,10.09
2019-03-22T00:27:33.951Z,10.15
2019-03-22T00:28:33.941Z,10.11
2019-03-22T00:29:33.931Z,10.11
2019-03-22T00:30:33.939Z,10.07
2019-03-22T00:31:33.907Z,10.04
2019-03-22T00:32:33.897Z,10.02
2019-03-22T00:33:33.887Z,10.05
2019-03-22T00:34:33.872Z,10.05
2019-03-22T00:35:33.879Z,10.04
2019-03-22T00:36:33.852Z,10.01
2019-03-22T00:37:33.838Z,10.04
2019-03-22T00:38:33.827Z,10.02
2019-03-22T00:39:33.815Z,10.04
2019-03-22T00:40:33.823Z,10.04
2019-03-22T00:41:33.793Z,10.04
2019-03-22T00:42:33.780Z,10.05
2019-03-22T00:43:33.773Z,9.99
2019-03-22T00:44:33.760Z,9.99
2019-03-22T00:45:33.766Z,10.07
2019-03-22T00:46:33.737Z,9.99
2019-03-22T00:47:33.731Z,10.05
2019-03-22T00:48:33.712Z,9.99
2019-03-22T00:49:33.704Z,10.01
2019-03-22T00:50:33.712Z,9.78
2019-03-22T00:51:33.679Z,9.83
2019-03-22T00:52:33.666Z,9.79
2019-03-22T00:53:33.657Z,9.78
2019-03-22T00:54:33.645Z,9.68
2019-03-22T00:55:33.649Z,9.69
2019-03-22T00:56:33.630Z,9.69
2019-03-22T00:57:33.611Z,9.72
2019-03-22T00:58:33.601Z,9.68
2019-03-22T00:59:33.589Z,9.72
2019-03-22T01:00:42.334Z,9.65
2019-03-22T01:01:43.232Z,9.53
2019-03-22T01:02:44.271Z,9.54
2019-03-22T01:03:43.318Z,9.60
2019-03-22T01:04:41.847Z,9.60
2019-03-22T01:05:42.266Z,9.51
2019-03-22T01:06:41.925Z,9.58
2019-03-22T01:07:41.967Z,9.56
2019-03-22T01:08:33.487Z,9.56
2019-03-22T01:09:33.475Z,9.57
2019-03-22T01:10:33.484Z,9.43
2019-03-22T01:11:33.452Z,9.38
2019-03-22T01:12:33.444Z,9.46
2019-03-22T01:13:33.430Z,9.46
2019-03-22T01:14:33.423Z,9.43
2019-03-22T01:15:33.426Z,9.38
2019-03-22T01:16:33.398Z,9.40
2019-03-22T01:17:33.384Z,9.40
2019-03-22T01:18:33.374Z,9.32
2019-03-22T01:19:33.363Z,9.32
2019-03-22T01:20:33.366Z,9.29
2019-03-22T01:21:33.339Z,9.38
2019-03-22T01:22:33.327Z,9.33
2019-03-22T01:23:33.322Z,9.28
2019-03-22T01:24:33.304Z,9.40
2019-03-22T01:25:33.310Z,9.32
2019-03-22T01:26:33.290Z,9.35
2019-03-22T01:27:40.438Z,9.35
2019-03-22T01:28:34.258Z,9.35
2019-03-22T01:29:33.249Z,9.31
2019-03-22T01:30:33.252Z,9.33
2019-03-22T01:31:33.228Z,9.42
2019-03-22T01:32:33.241Z,9.33
2019-03-22T01:33:33.203Z,9.36
2019-03-22T01:34:33.191Z,9.31
2019-03-22T01:35:33.179Z,9.29
2019-03-22T01:36:33.168Z,9.35
2019-03-22T01:37:33.158Z,9.39
2019-03-22T01:38:33.165Z,9.40
2019-03-22T01:39:33.135Z,9.46
2019-03-22T01:40:33.128Z,9.32
2019-03-22T01:41:33.111Z,9.35
2019-03-22T01:42:33.105Z,9.35
2019-03-22T01:43:33.118Z,9.36
2019-03-22T01:44:33.079Z,9.33
2019-03-22T01:45:33.066Z,9.36
2019-03-22T01:46:33.055Z,9.36
2019-03-22T01:47:33.044Z,9.35
2019-03-22T01:48:33.033Z,9.32
2019-03-22T01:49:33.041Z,9.32
2019-03-22T01:50:33.011Z,9.39
2019-03-22T01:51:33.000Z,9.39
2019-03-22T01:52:32.988Z,9.35
2019-03-22T01:53:32.977Z,9.31
2019-03-22T01:54:32.995Z,9.33
2019-03-22T01:55:32.956Z,9.36
2019-03-22T01:56:32.944Z,9.29
2019-03-22T01:57:32.932Z,9.32
2019-03-22T01:58:32.919Z,9.28
2019-03-22T01:59:32.907Z,9.36
2019-03-22T02:00:32.914Z,9.29
2019-03-22T02:01:32.885Z,9.26
2019-03-22T02:02:32.875Z,9.35
2019-03-22T02:03:32.863Z,9.40
2019-03-22T02:04:32.851Z,9.35
2019-03-22T02:05:32.875Z,9.35
2019-03-22T02:06:32.829Z,9.38
2019-03-22T02:07:32.818Z,9.28
2019-03-22T02:08:32.807Z,9.29
2019-03-22T02:09:32.795Z,9.29
2019-03-22T02:10:32.786Z,9.29
2019-03-22T02:11:32.797Z,9.26
2019-03-22T02:12:32.768Z,9.21
2019-03-22T02:13:32.750Z,9.24
2019-03-22T02:14:32.739Z,9.28
2019-03-22T02:15:32.726Z,9.17
2019-03-22T02:16:32.743Z,9.26
2019-03-22T02:17:32.704Z,9.28
2019-03-22T02:18:32.692Z,9.28
2019-03-22T02:19:32.685Z,9.14
2019-03-22T02:20:32.669Z,9.15
2019-03-22T02:21:32.658Z,9.26
2019-03-22T02:22:32.666Z,9.21
2019-03-22T02:23:32.640Z,9.11
2019-03-22T02:24:32.627Z,9.18
2019-03-22T02:25:32.617Z,9.08
2019-03-22T02:26:32.601Z,9.08
2019-03-22T02:27:32.674Z,9.17
2019-03-22T02:28:32.579Z,9.14
2019-03-22T02:29:32.572Z,9.08
2019-03-22T02:30:32.560Z,9.13
2019-03-22T02:31:32.603Z,9.05
2019-03-22T02:32:32.538Z,8.98
2019-03-22T02:33:32.540Z,9.04
2019-03-22T02:34:32.516Z,9.01
2019-03-22T02:35:32.514Z,9.02
2019-03-22T02:36:32.492Z,9.10
2019-03-22T02:37:32.478Z,9.14
2019-03-22T02:38:32.500Z,9.14
2019-03-22T02:39:32.504Z,9.11
2019-03-22T02:40:32.492Z,9.14
2019-03-22T02:41:32.433Z,9.15
2019-03-22T02:42:32.422Z,9.14
2019-03-22T02:43:32.419Z,9.29
2019-03-22T02:44:32.421Z,9.21
2019-03-22T02:45:32.387Z,9.26
2019-03-22T02:46:32.376Z,9.18
2019-03-22T02:47:32.365Z,9.18
2019-03-22T02:48:32.353Z,9.13
2019-03-22T02:49:32.375Z,9.18
2019-03-22T02:50:32.333Z,9.13
2019-03-22T02:51:32.327Z,9.15
2019-03-22T02:52:32.314Z,9.18
2019-03-22T02:53:32.296Z,9.20
2019-03-22T02:54:32.286Z,9.24
2019-03-22T02:55:32.295Z,9.14
2019-03-22T02:56:32.261Z,9.11
2019-03-22T02:57:32.252Z,9.10
2019-03-22T02:58:32.242Z,9.14
2019-03-22T02:59:32.229Z,9.08
2019-03-22T03:00:32.247Z,9.04
2019-03-22T03:01:32.211Z,9.10
2019-03-22T03:02:32.195Z,9.01
2019-03-22T03:03:32.183Z,8.94
2019-03-22T03:04:32.173Z,9.10
2019-03-22T03:05:32.169Z,8.95
2019-03-22T03:06:32.169Z,8.95
2019-03-22T03:07:32.138Z,8.86
2019-03-22T03:08:32.133Z,8.95
2019-03-22T03:09:32.115Z,8.94
2019-03-22T03:10:32.105Z,8.95
2019-03-22T03:11:32.122Z,8.96
2019-03-22T03:12:32.082Z,8.95
2019-03-22T03:13:32.069Z,8.92
2019-03-22T03:14:32.059Z,8.95
2019-03-22T03:15:32.049Z,8.92
2019-03-22T03:16:32.043Z,8.92
2019-03-22T03:17:32.042Z,8.86
2019-03-22T03:18:32.018Z,8.94
2019-03-22T03:19:32.001Z,8.92
2019-03-22T03:20:31.990Z,8.84
2019-03-22T03:21:31.983Z,8.80
2019-03-22T03:22:32.000Z,8.80
2019-03-22T03:23:31.957Z,8.86
2019-03-22T03:24:31.946Z,8.80
2019-03-22T03:25:31.937Z,8.81
2019-03-22T03:26:31.921Z,8.83
2019-03-22T03:27:31.910Z,8.79
2019-03-22T03:28:37.346Z,8.80
2019-03-22T03:29:32.888Z,8.79
2019-03-22T03:30:31.879Z,8.81
2019-03-22T03:31:31.941Z,8.80
2019-03-22T03:32:31.856Z,8.79
2019-03-22T03:33:31.871Z,8.76
2019-03-22T03:34:31.834Z,8.77
2019-03-22T03:35:31.821Z,8.80
2019-03-22T03:36:34.840Z,8.79
2019-03-22T03:37:31.813Z,8.79
2019-03-22T03:38:31.786Z,8.79
2019-03-22T03:39:31.791Z,8.74
2019-03-22T03:40:31.763Z,8.68
2019-03-22T03:41:31.753Z,8.66
2019-03-22T03:42:31.747Z,8.66
2019-03-22T03:43:31.739Z,8.71
2019-03-22T03:44:31.747Z,8.73
2019-03-22T03:45:31.709Z,8.68
2019-03-22T03:46:31.694Z,8.65
2019-03-22T03:47:31.686Z,8.62
2019-03-22T03:48:31.674Z,8.70
2019-03-22T03:49:31.662Z,8.63
2019-03-22T03:50:31.672Z,8.62
2019-03-22T03:51:31.638Z,8.66
2019-03-22T03:52:31.626Z,8.61
2019-03-22T03:53:31.623Z,8.62
2019-03-22T03:54:31.609Z,8.65
2019-03-22T03:55:31.620Z,8.59
2019-03-22T03:56:31.582Z,8.59
2019-03-22T03:57:31.573Z,8.56
2019-03-22T03:58:31.560Z,8.56
2019-03-22T03:59:31.548Z,8.52
2019-03-22T04:00:31.536Z,8.56
2019-03-22T04:01:32.995Z,8.58
2019-03-22T04:02:31.514Z,8.52
2019-03-22T04:03:31.502Z,8.56
2019-03-22T04:04:31.490Z,8.53
2019-03-22T04:05:31.484Z,8.44
2019-03-22T04:06:31.512Z,8.47
2019-03-22T04:07:31.455Z,8.45
2019-03-22T04:08:31.444Z,8.45
2019-03-22T04:09:31.434Z,8.43
2019-03-22T04:10:31.429Z,8.44
2019-03-22T04:11:31.418Z,8.40
2019-03-22T04:12:31.420Z,8.37
2019-03-22T04:13:31.394Z,8.40
2019-03-22T04:14:31.378Z,8.40
2019-03-22T04:15:31.367Z,8.38
2019-03-22T04:16:31.358Z,8.38
2019-03-22T04:17:31.372Z,8.33
2019-03-22T04:18:31.332Z,8.33
2019-03-22T04:19:31.319Z,8.33
2019-03-22T04:20:31.309Z,8.29
2019-03-22T04:21:31.298Z,8.28
2019-03-22T04:22:31.289Z,8.25
2019-03-22T04:23:31.301Z,8.25
2019-03-22T04:24:31.265Z,8.18
2019-03-22T04:25:31.255Z,8.18
2019-03-22T04:26:31.241Z,8.18
2019-03-22T04:27:31.237Z,8.16
2019-03-22T04:28:31.247Z,8.15
2019-03-22T04:29:31.211Z,8.12
2019-03-22T04:30:31.198Z,8.15
2019-03-22T04:31:31.184Z,8.11
2019-03-22T04:32:31.180Z,8.19
2019-03-22T04:33:31.169Z,8.22
2019-03-22T04:34:31.170Z,8.19
2019-03-22T04:35:31.141Z,8.20
2019-03-22T04:36:31.128Z,8.18
2019-03-22T04:37:31.118Z,8.28
2019-03-22T04:38:31.106Z,8.16
2019-03-22T04:39:31.124Z,8.15
2019-03-22T04:40:31.084Z,8.10
2019-03-22T04:41:31.076Z,8.18
2019-03-22T04:42:31.062Z,8.19
2019-03-22T04:43:31.051Z,8.18
2019-03-22T04:44:31.041Z,8.15
2019-03-22T04:45:31.061Z,8.07
2019-03-22T04:46:31.020Z,8.11
2019-03-22T04:47:31.006Z,8.00
2019-03-22T04:48:30.995Z,8.05
2019-03-22T04:49:30.983Z,8.02
2019-03-22T04:50:31.003Z,8.00
2019-03-22T04:51:30.961Z,8.01
2019-03-22T04:52:30.951Z,8.04
2019-03-22T04:53:30.939Z,7.98
2019-03-22T04:54:30.928Z,8.05
2019-03-22T04:55:30.916Z,8.04
2019-03-22T04:56:30.922Z,8.02
2019-03-22T04:57:30.894Z,8.05
2019-03-22T04:58:30.882Z,7.98
2019-03-22T04:59:30.874Z,8.02
2019-03-22T05:00:30.859Z,8.04
2019-03-22T05:01:30.877Z,8.01
2019-03-22T05:02:30.837Z,8.01
2019-03-22T05:03:30.826Z,8.08
2019-03-22T05:04:30.820Z,8.04
2019-03-22T05:05:30.804Z,8.05
2019-03-22T05:06:30.791Z,8.01
2019-03-22T05:07:30.796Z,8.04
2019-03-22T05:08:30.771Z,8.04
2019-03-22T05:09:30.761Z,8.00
2019-03-22T05:10:30.748Z,7.95
2019-03-22T05:11:30.739Z,7.87
2019-03-22T05:12:30.755Z,7.97
2019-03-22T05:13:30.713Z,7.95
2019-03-22T05:14:30.702Z,7.98
2019-03-22T05:15:30.697Z,7.95
2019-03-22T05:16:30.679Z,7.80
2019-03-22T05:17:30.669Z,7.90
2019-03-22T05:18:30.675Z,7.86
2019-03-22T05:19:30.647Z,7.92
2019-03-22T05:20:30.636Z,7.87
2019-03-22T05:21:30.624Z,7.90
2019-03-22T05:22:30.614Z,7.80
2019-03-22T05:23:30.629Z,7.79
2019-03-22T05:24:30.591Z,7.83
2019-03-22T05:25:30.584Z,7.79
2019-03-22T05:26:30.576Z,7.90
2019-03-22T05:27:30.557Z,7.92
2019-03-22T05:28:30.550Z,7.92
2019-03-22T05:29:31.140Z,7.92
2019-03-22T05:30:30.527Z,7.82
2019-03-22T05:31:30.517Z,7.97
2019-03-22T05:32:30.500Z,7.87
2019-03-22T05:33:30.490Z,7.83
2019-03-22T05:34:30.508Z,7.86
2019-03-22T05:35:30.471Z,7.87
2019-03-22T05:36:30.457Z,7.87
2019-03-22T05:37:30.448Z,7.83
2019-03-22T05:38:30.434Z,8.00
2019-03-22T05:39:30.422Z,7.93
2019-03-22T05:40:30.427Z,7.95
2019-03-22T05:41:30.400Z,7.86
2019-03-22T05:42:30.388Z,7.82
2019-03-22T05:43:30.380Z,7.87
2019-03-22T05:44:30.370Z,7.83
2019-03-22T05:45:30.381Z,7.83
2019-03-22T05:46:30.345Z,7.90
2019-03-22T05:47:30.334Z,7.86
2019-03-22T05:48:30.323Z,7.86
2019-03-22T05:49:30.310Z,7.93
2019-03-22T05:50:30.299Z,7.98
2019-03-22T05:51:30.305Z,7.93
2019-03-22T05:52:30.288Z,8.02
2019-03-22T05:53:30.266Z,8.02
2019-03-22T05:54:30.256Z,8.02
2019-03-22T05:55:30.244Z,8.01
2019-03-22T05:56:30.262Z,7.97
2019-03-22T05:57:30.228Z,8.05
2019-03-22T05:58:30.210Z,8.04
2019-03-22T05:59:41.581Z,8.02
2019-03-22T06:00:31.186Z,8.01
2019-03-22T06:01:30.176Z,8.00
2019-03-22T06:02:30.182Z,8.01
2019-03-22T06:03:30.156Z,8.08
2019-03-22T06:04:30.144Z,8.16
2019-03-22T06:05:30.135Z,8.10
2019-03-22T06:06:30.121Z,8.20
2019-03-22T06:07:30.148Z,8.10
2019-03-22T06:08:30.103Z,8.18
2019-03-22T06:09:30.088Z,8.16
2019-03-22T06:10:30.081Z,8.15
2019-03-22T06:11:30.064Z,8.20
2019-03-22T06:12:30.053Z,8.18
2019-03-22T06:13:30.059Z,8.22
2019-03-22T06:14:30.033Z,8.28
2019-03-22T06:15:30.020Z,8.28
2019-03-22T06:16:30.018Z,8.20
2019-03-22T06:17:29.999Z,8.40
2019-03-22T06:18:30.016Z,8.33
2019-03-22T06:19:29.975Z,8.36
2019-03-22T06:20:29.966Z,8.37
2019-03-22T06:21:29.956Z,8.38
2019-03-22T06:22:29.942Z,8.55
2019-03-22T06:23:29.930Z,8.56
2019-03-22T06:24:29.936Z,8.58
2019-03-22T06:25:29.909Z,8.52
2019-03-22T06:26:29.896Z,8.62
2019-03-22T06:27:29.889Z,8.63
2019-03-22T06:28:29.888Z,8.66
2019-03-22T06:29:29.892Z,8.74
2019-03-22T06:30:29.852Z,8.83
2019-03-22T06:31:29.840Z,8.86
2019-03-22T06:32:29.835Z,8.79
2019-03-22T06:33:29.819Z,8.92
2019-03-22T06:34:29.809Z,8.94
2019-03-22T06:35:29.818Z,8.99
2019-03-22T06:36:29.784Z,9.04
2019-03-22T06:37:29.772Z,9.01
2019-03-22T06:38:29.762Z,9.02
2019-03-22T06:39:29.755Z,8.96
2019-03-22T06:40:29.764Z,9.02
2019-03-22T06:41:29.729Z,9.02
2019-03-22T06:42:29.715Z,8.96
2019-03-22T06:43:29.704Z,8.92
2019-03-22T06:44:29.695Z,8.94
2019-03-22T06:45:29.680Z,8.96
2019-03-22T06:46:29.690Z,8.99
2019-03-22T06:47:29.658Z,8.99
2019-03-22T06:48:29.648Z,9.14
2019-03-22T06:49:29.634Z,9.10
2019-03-22T06:50:29.624Z,9.08
2019-03-22T06:51:29.640Z,9.18
2019-03-22T06:52:29.602Z,9.21
2019-03-22T06:53:29.590Z,9.32
2019-03-22T06:54:31.866Z,9.39
2019-03-22T06:55:29.567Z,9.40
2019-03-22T06:56:29.560Z,9.50
2019-03-22T06:57:29.561Z,9.60
2019-03-22T06:58:29.534Z,9.72
2019-03-22T06:59:29.525Z,9.71
2019-03-22T07:00:29.509Z,9.72
2019-03-22T07:01:29.502Z,9.83
2019-03-22T07:02:29.520Z,9.78
2019-03-22T07:03:29.477Z,9.91
2019-03-22T07:04:29.465Z,10.02
2019-03-22T07:05:29.457Z,10.09
2019-03-22T07:06:29.444Z,10.15
2019-03-22T07:07:29.439Z,10.20
2019-03-22T07:08:29.438Z,10.25
2019-03-22T07:09:29.444Z,10.23
2019-03-22T07:10:29.399Z,10.22
2019-03-22T07:11:29.390Z,10.33
2019-03-22T07:12:29.378Z,10.32
2019-03-22T07:13:29.392Z,10.41
2019-03-22T07:14:29.364Z,10.45
2019-03-22T07:15:29.340Z,10.52
2019-03-22T07:16:29.333Z,10.56
2019-03-22T07:17:29.323Z,10.56
2019-03-22T07:18:29.309Z,10.56
2019-03-22T07:19:29.315Z,10.66
2019-03-22T07:20:29.284Z,10.61
2019-03-22T07:21:29.272Z,10.70
2019-03-22T07:22:29.262Z,10.73
2019-03-22T07:23:29.250Z,10.89
2019-03-22T07:24:29.269Z,10.88
2019-03-22T07:25:29.228Z,10.84
2019-03-22T07:26:30.231Z,10.91
2019-03-22T07:27:29.214Z,10.97
2019-03-22T07:28:29.195Z,11.14
2019-03-22T07:29:29.183Z,11.06
2019-03-22T07:30:29.189Z,11.09
2019-03-22T07:31:29.160Z,11.25
2019-03-22T07:32:29.150Z,11.25
2019-03-22T07:33:29.138Z,11.33
2019-03-22T07:34:29.127Z,11.33
2019-03-22T07:35:29.143Z,11.42
2019-03-22T07:36:29.109Z,11.36
2019-03-22T07:37:29.096Z,11.35
2019-03-22T07:38:29.081Z,11.39
2019-03-22T07:39:29.070Z,11.42
2019-03-22T07:40:29.059Z,11.35
2019-03-22T07:41:29.063Z,11.46
2019-03-22T07:42:37.573Z,11.51
2019-03-22T07:43:38.620Z,11.60
2019-03-22T07:44:38.652Z,11.52
2019-03-22T07:45:37.691Z,11.67
2019-03-22T07:46:36.571Z,11.72
2019-03-22T07:47:37.270Z,11.69
2019-03-22T07:48:37.309Z,11.83
2019-03-22T07:49:37.348Z,11.85
2019-03-22T07:50:40.883Z,11.90
2019-03-22T07:51:28.939Z,11.88
2019-03-22T07:52:28.940Z,12.02
2019-03-22T07:53:28.918Z,11.95
2019-03-22T07:54:28.901Z,12.01
2019-03-22T07:55:28.892Z,11.94
2019-03-22T07:56:28.878Z,12.02
2019-03-22T07:57:28.898Z,11.99
2019-03-22T07:58:28.860Z,12.09
2019-03-22T07:59:28.845Z,12.04
2019-03-22T08:00:30.926Z,12.10
2019-03-22T08:01:28.821Z,12.05
2019-03-22T08:02:28.811Z,12.10
2019-03-22T08:03:28.818Z,12.20
2019-03-22T08:04:28.790Z,12.13
2019-03-22T08:05:28.778Z,12.16
2019-03-22T08:06:28.767Z,12.24
2019-03-22T08:07:28.754Z,12.23
2019-03-22T08:08:28.776Z,12.39
2019-03-22T08:09:28.733Z,12.42
2019-03-22T08:10:28.798Z,12.50
2019-03-22T08:11:28.744Z,12.68
2019-03-22T08:12:28.704Z,12.75
2019-03-22T08:13:28.688Z,12.78
2019-03-22T08:14:28.705Z,12.95
2019-03-22T08:15:28.670Z,13.07
2019-03-22T08:16:28.656Z,13.19
2019-03-22T08:17:28.644Z,13.26
2019-03-22T08:18:28.632Z,13.33
2019-03-22T08:19:28.646Z,13.42
2019-03-22T08:20:28.636Z,13.64
2019-03-22T08:21:28.628Z,13.63
2019-03-22T08:22:28.587Z,13.73
2019-03-22T08:23:28.574Z,13.73
2019-03-22T08:24:28.568Z,13.87
2019-03-22T08:25:28.573Z,14.00
2019-03-22T08:26:28.541Z,14.07
2019-03-22T08:27:28.532Z,14.21
2019-03-22T08:28:28.538Z,14.22
2019-03-22T08:29:28.528Z,14.28
2019-03-22T08:30:28.564Z,14.32
2019-03-22T08:31:28.484Z,14.24
2019-03-22T08:32:28.473Z,14.45
2019-03-22T08:33:28.462Z,14.35
2019-03-22T08:34:28.454Z,14.36
2019-03-22T08:35:28.464Z,14.39
2019-03-22T08:36:28.445Z,14.35
2019-03-22T08:37:28.416Z,14.45
2019-03-22T08:38:28.409Z,14.51
2019-03-22T08:39:28.393Z,14.61
2019-03-22T08:40:28.385Z,14.60
2019-03-22T08:41:28.414Z,14.80
2019-03-22T08:42:28.359Z,14.88
2019-03-22T08:43:28.447Z,14.94
2019-03-22T08:44:28.371Z,14.95
2019-03-22T08:45:28.328Z,14.99
2019-03-22T08:46:28.315Z,14.99
2019-03-22T08:47:33.743Z,15.02
2019-03-22T08:48:29.298Z,14.89
2019-03-22T08:49:28.426Z,14.81
2019-03-22T08:50:28.286Z,14.91
2019-03-22T08:51:29.935Z,14.99
2019-03-22T08:52:28.277Z,14.94
2019-03-22T08:53:28.237Z,14.96
2019-03-22T08:54:28.231Z,15.03
2019-03-22T08:55:28.219Z,15.16
2019-03-22T08:56:28.233Z,15.27
2019-03-22T08:57:28.199Z,15.34
2019-03-22T08:58:28.229Z,15.34
2019-03-22T08:59:28.177Z,15.47
2019-03-22T09:00:38.670Z,15.56
2019-03-22T09:01:29.159Z,15.54
2019-03-22T09:02:28.164Z,15.62
2019-03-22T09:03:28.156Z,15.59
2019-03-22T09:04:28.156Z,15.67
2019-03-22T09:05:28.105Z,15.72
2019-03-22T09:06:28.102Z,15.83
2019-03-22T09:07:28.086Z,16.04
2019-03-22T09:08:28.071Z,16.12
2019-03-22T09:09:40.703Z,16.31
2019-03-22T09:10:29.049Z,16.41
2019-03-22T09:11:28.036Z,16.41
2019-03-22T09:12:28.026Z,16.45
2019-03-22T09:13:28.039Z,16.71
2019-03-22T09:14:28.039Z,16.79
2019-03-22T09:15:40.267Z,16.83
2019-03-22T09:16:30.806Z,16.94
2019-03-22T09:17:27.994Z,17.00
2019-03-22T09:18:27.975Z,17.16
2019-03-22T09:19:27.957Z,17.30
2019-03-22T09:20:27.954Z,17.43
2019-03-22T09:21:27.955Z,17.68
2019-03-22T09:22:27.930Z,17.81
2019-03-22T09:23:27.933Z,17.87
2019-03-22T09:24:38.495Z,18.00
2019-03-22T09:25:28.908Z,18.17
2019-03-22T09:26:27.872Z,18.39
2019-03-22T09:27:27.900Z,18.67
2019-03-22T09:28:27.864Z,18.90
2019-03-22T09:29:27.839Z,19.25
2019-03-22T09:30:27.831Z,19.55
2019-03-22T09:31:27.872Z,19.71
2019-03-22T09:32:27.803Z,20.13
2019-03-22T09:33:27.796Z,20.54
2019-03-22T09:34:33.528Z,21.07
2019-03-22T09:35:28.773Z,21.64
2019-03-22T09:36:27.808Z,22.02
2019-03-22T09:37:27.804Z,22.22
2019-03-22T09:38:28.709Z,22.68
2019-03-22T09:39:27.749Z,23.04
2019-03-22T09:40:27.715Z,23.47
2019-03-22T09:41:27.706Z,23.85
2019-03-22T09:42:27.705Z,24.42
2019-03-22T09:43:27.702Z,24.81
2019-03-22T09:44:28.362Z,24.91
2019-03-22T09:45:27.714Z,24.99
2019-03-22T09:46:27.671Z,24.62
2019-03-22T09:47:27.661Z,24.61
2019-03-22T09:48:27.624Z,24.93
2019-03-22T09:49:27.617Z,25.42
2019-03-22T09:50:27.687Z,25.72
2019-03-22T09:51:27.635Z,26.02
2019-03-22T09:52:27.580Z,26.48
2019-03-22T09:53:30.367Z,26.77
2019-03-22T09:54:27.606Z,27.07
2019-03-22T09:55:27.556Z,27.07
2019-03-22T09:56:27.541Z,26.99
2019-03-22T09:57:27.523Z,26.97
2019-03-22T09:58:27.547Z,27.09
2019-03-22T09:59:27.555Z,27.18
2019-03-22T10:00:27.493Z,27.36
2019-03-22T10:01:27.527Z,27.43
2019-03-22T10:02:27.467Z,27.51
2019-03-22T10:03:27.461Z,27.13
2019-03-22T10:04:27.514Z,27.14
2019-03-22T10:05:27.433Z,26.97
2019-03-22T10:06:27.431Z,26.92
2019-03-22T10:07:27.416Z,26.40
2019-03-22T10:08:27.400Z,26.26
2019-03-22T10:09:27.419Z,26.32
2019-03-22T10:10:27.380Z,25.55
2019-03-22T10:11:27.367Z,25.91
2019-03-22T10:12:27.357Z,26.21
2019-03-22T10:13:27.357Z,26.29
2019-03-22T10:14:27.339Z,26.47
2019-03-22T10:15:27.344Z,26.35
2019-03-22T10:16:27.325Z,26.17
2019-03-22T10:17:27.302Z,26.30
2019-03-22T10:18:27.346Z,26.81
2019-03-22T10:19:27.300Z,27.04
2019-03-22T10:20:27.300Z,26.95
2019-03-22T10:21:27.283Z,27.25
2019-03-22T10:22:27.257Z,27.46
2019-03-22T10:23:27.259Z,27.57
2019-03-22T10:24:27.232Z,27.44
2019-03-22T10:25:27.280Z,26.73
2019-03-22T10:26:27.223Z,26.40
2019-03-22T10:27:27.214Z,26.51
2019-03-22T10:28:27.181Z,26.70
2019-03-22T10:29:27.171Z,26.77
2019-03-22T10:30:27.159Z,26.77
2019-03-22T10:31:36.392Z,27.10
2019-03-22T10:32:28.147Z,27.13
2019-03-22T10:33:27.126Z,27.40
2019-03-22T10:34:27.150Z,27.81
2019-03-22T10:35:27.141Z,27.90
2019-03-22T10:36:27.096Z,28.24
2019-03-22T10:37:27.111Z,28.44
2019-03-22T10:38:31.838Z,28.81
2019-03-22T10:39:28.105Z,29.21
2019-03-22T10:40:27.140Z,28.93
2019-03-22T10:41:27.055Z,28.96
2019-03-22T10:42:27.058Z,28.98
2019-03-22T10:43:27.022Z,28.24
2019-03-22T10:44:27.077Z,28.04
2019-03-22T10:45:27.030Z,28.09
2019-03-22T10:46:27.040Z,27.88
2019-03-22T10:47:26.975Z,27.63
2019-03-22T10:48:26.988Z,27.62
2019-03-22T10:49:26.978Z,27.97
2019-03-22T10:50:26.959Z,28.41
2019-03-22T10:51:27.010Z,28.78
2019-03-22T10:52:26.955Z,29.11
2019-03-22T10:53:26.959Z,29.27
2019-03-22T10:54:26.925Z,29.46
2019-03-22T10:55:30.135Z,29.80
2019-03-22T10:56:26.879Z,30.08
2019-03-22T10:57:26.867Z,29.82
2019-03-22T10:58:26.861Z,29.23
2019-03-22T10:59:26.862Z,29.21
2019-03-22T11:00:26.886Z,29.49
2019-03-22T11:01:26.825Z,29.42
2019-03-22T11:02:26.826Z,29.53
2019-03-22T11:03:26.935Z,29.60
2019-03-22T11:04:26.820Z,29.70
2019-03-22T11:05:26.784Z,29.90
2019-03-22T11:06:26.950Z,30.00
2019-03-22T11:07:27.443Z,30.16
2019-03-22T11:08:26.749Z,29.82
2019-03-22T11:09:27.442Z,29.73
2019-03-22T11:10:26.749Z,29.76
2019-03-22T11:11:26.718Z,29.83
2019-03-22T11:12:26.718Z,29.94
2019-03-22T11:13:26.704Z,30.13
2019-03-22T11:14:26.686Z,30.23
2019-03-22T11:15:26.705Z,30.17
2019-03-22T11:16:26.667Z,30.31
2019-03-22T11:17:26.656Z,30.55
2019-03-22T11:18:36.827Z,30.70
2019-03-22T11:19:27.632Z,30.69
2019-03-22T11:20:26.621Z,30.38
2019-03-22T11:21:26.631Z,29.92
2019-03-22T11:22:26.608Z,29.68
2019-03-22T11:23:26.590Z,29.14
2019-03-22T11:24:27.447Z,28.29
2019-03-22T11:25:26.570Z,26.18
2019-03-22T11:26:26.586Z,24.42
2019-03-22T11:27:26.549Z,23.48
2019-03-22T11:28:26.546Z,22.91
2019-03-22T11:29:26.529Z,22.43
2019-03-22T11:30:26.515Z,21.79
2019-03-22T11:31:28.548Z,21.50
2019-03-22T11:32:26.520Z,21.06
2019-03-22T11:33:26.486Z,20.77
2019-03-22T11:34:26.476Z,20.28
2019-03-22T11:35:26.470Z,19.76
2019-03-22T11:36:26.454Z,19.62
2019-03-22T11:37:26.475Z,19.58
2019-03-22T11:38:26.434Z,19.61
2019-03-22T11:39:26.420Z,19.46
2019-03-22T11:40:26.409Z,19.44
2019-03-22T11:41:26.398Z,19.50
2019-03-22T11:42:26.387Z,19.29
2019-03-22T11:43:26.392Z,19.26
2019-03-22T11:44:26.366Z,19.18
2019-03-22T11:45:26.355Z,19.16
2019-03-22T11:46:26.346Z,19.13
2019-03-22T11:47:26.332Z,19.04
2019-03-22T11:48:26.349Z,18.88
2019-03-22T11:49:26.311Z,18.99
2019-03-22T11:50:26.301Z,18.94
2019-03-22T11:51:26.288Z,18.91
2019-03-22T11:52:26.276Z,18.88
2019-03-22T11:53:26.269Z,18.69
2019-03-22T11:54:26.274Z,18.55
2019-03-22T11:55:26.244Z,18.55
2019-03-22T11:56:26.236Z,18.51
2019-03-22T11:57:26.226Z,18.51
2019-03-22T11:58:26.213Z,18.55
2019-03-22T11:59:26.228Z,18.54
2019-03-22T12:00:26.190Z,18.54
2019-03-22T12:01:26.190Z,18.48
2019-03-22T12:02:26.167Z,18.33
2019-03-22T12:03:26.156Z,18.36
2019-03-22T12:04:26.151Z,18.37
2019-03-22T12:05:26.151Z,18.20
2019-03-22T12:06:27.426Z,18.29
2019-03-22T12:07:26.118Z,18.21
2019-03-22T12:08:26.099Z,18.14
2019-03-22T12:09:26.093Z,18.08
2019-03-22T12:10:26.093Z,18.02
2019-03-22T12:11:26.068Z,18.05
2019-03-22T12:12:26.058Z,18.08
2019-03-22T12:13:26.045Z,18.15
2019-03-22T12:14:26.967Z,18.12
2019-03-22T12:15:26.052Z,18.12
2019-03-22T12:16:26.014Z,18.14
2019-03-22T12:17:25.999Z,18.12
2019-03-22T12:18:25.987Z,18.12
2019-03-22T12:19:25.975Z,18.17
2019-03-22T12:20:25.968Z,18.11
2019-03-22T12:21:25.981Z,18.03
2019-03-22T12:22:25.951Z,18.05
2019-03-22T12:23:25.932Z,17.92
2019-03-22T12:24:25.925Z,17.84
2019-03-22T12:25:25.912Z,17.79
2019-03-22T12:26:25.930Z,17.70
2019-03-22T12:27:25.888Z,17.63
2019-03-22T12:28:25.883Z,17.54
2019-03-22T12:29:25.870Z,17.51
2019-03-22T12:30:25.855Z,17.52
2019-03-22T12:31:25.844Z,17.51
2019-03-22T12:32:32.111Z,17.56
2019-03-22T12:33:26.822Z,17.55
2019-03-22T12:34:25.810Z,17.51
2019-03-22T12:35:25.804Z,17.44
2019-03-22T12:36:25.789Z,17.49
2019-03-22T12:37:25.807Z,17.49
2019-03-22T12:38:25.765Z,17.51
2019-03-22T12:39:25.757Z,17.54
2019-03-22T12:40:25.744Z,17.59
2019-03-22T12:41:25.733Z,17.56
2019-03-22T12:42:25.722Z,17.62
2019-03-22T12:43:25.728Z,17.58
2019-03-22T12:44:25.698Z,17.59
2019-03-22T12:45:25.689Z,17.51
2019-03-22T12:46:25.680Z,17.54
2019-03-22T12:47:25.667Z,17.62
2019-03-22T12:48:25.671Z,17.52
2019-03-22T12:49:25.642Z,17.55
2019-03-22T12:50:25.632Z,17.56
2019-03-22T12:51:25.620Z,17.51
2019-03-22T12:52:25.608Z,17.62
2019-03-22T12:53:25.625Z,17.56
2019-03-22T12:54:25.585Z,17.59
2019-03-22T12:55:25.578Z,17.55
2019-03-22T12:56:25.563Z,17.44
2019-03-22T12:57:25.551Z,17.43
2019-03-22T12:58:25.541Z,17.40
2019-03-22T12:59:25.571Z,17.38
2019-03-22T13:00:25.551Z,17.37
2019-03-22T13:01:25.507Z,17.33
2019-03-22T13:02:25.497Z,17.33
2019-03-22T13:03:25.486Z,17.25
2019-03-22T13:04:25.471Z,17.25